Time;durP1;ratioP1;P1;durP2;ratioP2;P2;SDS_P1;SDS_P2;PMS_P1;PMS_P2;Temp;Humidity;BMP_temperature;BMP_pressure;BME280_temperature;BME280_humidity;BME280_pressure;Samples;Min_cycle;Max_cycle;Signal;HPM_P1;HPM_P2
2021/06/07 00:01:06;;;;;;;2.90;1.45;;;18.20;76.00;;;;;;5086166;28;20032;-72
2021/06/07 00:03:32;;;;;;;2.10;1.50;;;18.10;76.10;;;;;;5068245;28;20055;-71
2021/06/07 00:05:58;;;;;;;4.22;1.77;;;18.10;76.10;;;;;;5070248;28;20028;-71
2021/06/07 00:08:23;;;;;;;3.05;1.80;;;18.10;76.10;;;;;;5068639;28;20037;-72
2021/06/07 00:10:49;;;;;;;2.60;1.40;;;18.10;76.10;;;;;;5085973;28;20036;-71
2021/06/07 00:13:15;;;;;;;3.88;1.80;;;18.10;76.20;;;;;;5068074;28;20063;-71
2021/06/07 00:15:40;;;;;;;3.78;1.85;;;18.10;76.00;;;;;;5067976;28;20044;-71
2021/06/07 00:18:06;;;;;;;2.88;1.88;;;18.10;76.10;;;;;;5087328;28;20094;-71
2021/06/07 00:20:47;;;;;;;4.22;1.70;;;18.10;76.30;;;;;;5086213;28;20036;-71
2021/06/07 00:23:13;;;;;;;4.90;2.35;;;18.10;76.10;;;;;;5068050;28;20251;-71
2021/06/07 00:25:39;;;;;;;2.10;1.50;;;18.10;76.00;;;;;;5085767;28;20033;-71
2021/06/07 00:28:06;;;;;;;2.80;1.63;;;18.00;76.10;;;;;;5068131;28;20385;-72
2021/06/07 00:30:32;;;;;;;2.25;1.70;;;18.00;75.90;;;;;;5085530;28;20091;-71
2021/06/07 00:32:57;;;;;;;2.67;1.70;;;18.00;76.00;;;;;;5087474;28;20043;-71
2021/06/07 00:35:23;;;;;;;2.90;1.70;;;18.00;75.90;;;;;;5085907;28;20041;-71
2021/06/07 00:37:49;;;;;;;2.40;1.65;;;18.00;76.00;;;;;;5085511;28;20044;-71
2021/06/07 00:40:15;;;;;;;5.20;1.77;;;18.00;75.90;;;;;;5085579;28;20036;-71
2021/06/07 00:42:41;;;;;;;3.42;1.73;;;18.00;75.90;;;;;;5085300;28;20060;-71
2021/06/07 00:45:09;;;;;;;6.18;1.60;;;18.00;76.00;;;;;;5087496;28;20025;-71
2021/06/07 00:47:34;;;;;;;2.72;1.85;;;18.00;76.10;;;;;;5067939;28;20028;-71
2021/06/07 00:50:00;;;;;;;2.05;1.60;;;18.00;76.10;;;;;;5067580;28;20028;-72
2021/06/07 00:52:25;;;;;;;2.25;1.38;;;18.00;76.00;;;;;;5085135;28;20032;-72
2021/06/07 00:54:51;;;;;;;3.15;1.50;;;18.00;76.00;;;;;;5085023;28;20068;-71
2021/06/07 00:57:16;;;;;;;2.30;1.70;;;18.00;76.00;;;;;;5084609;28;20041;-70
2021/06/07 00:59:42;;;;;;;3.55;1.60;;;18.00;76.00;;;;;;5086188;28;20055;-71
2021/06/07 01:02:08;;;;;;;2.53;1.70;;;17.90;76.10;;;;;;5085400;28;20041;-72
2021/06/07 01:04:34;;;;;;;3.58;1.52;;;17.90;76.10;;;;;;5050641;28;20100;-71
2021/06/07 01:06:59;;;;;;;2.88;1.98;;;17.90;76.00;;;;;;5066997;28;20086;-71
2021/06/07 01:09:25;;;;;;;2.83;1.77;;;17.90;75.80;;;;;;5067168;28;20052;-71
2021/06/07 01:11:50;;;;;;;3.15;1.60;;;18.00;75.80;;;;;;5086755;28;20074;-71
2021/06/07 01:14:16;;;;;;;3.40;1.70;;;17.90;75.60;;;;;;5084940;28;20041;-71
2021/06/07 01:16:41;;;;;;;3.10;1.67;;;17.80;75.60;;;;;;5084575;28;20063;-71
2021/06/07 01:19:07;;;;;;;3.10;1.80;;;17.90;75.80;;;;;;5084628;28;20100;-71
2021/06/07 01:21:33;;;;;;;2.55;1.65;;;17.80;75.70;;;;;;5066743;28;20072;-70
2021/06/07 01:23:58;;;;;;;2.25;1.80;;;17.80;75.80;;;;;;5086567;28;20043;-71
2021/06/07 01:26:24;;;;;;;2.53;1.42;;;17.80;75.80;;;;;;5084953;28;20036;-72
2021/06/07 01:28:50;;;;;;;3.50;2.00;;;17.80;75.70;;;;;;5084483;28;20266;-71
2021/06/07 01:31:16;;;;;;;4.30;1.70;;;17.80;75.50;;;;;;5066519;28;20051;-71
2021/06/07 01:33:43;;;;;;;3.15;1.65;;;17.80;75.80;;;;;;5084313;28;20205;-71
2021/06/07 01:36:09;;;;;;;2.25;1.65;;;17.80;75.80;;;;;;5068541;28;20219;-71
2021/06/07 01:38:34;;;;;;;2.83;1.90;;;17.80;75.80;;;;;;5084489;28;20037;-71
2021/06/07 01:41:02;;;;;;;3.15;1.85;;;17.80;75.70;;;;;;5066703;28;20032;-71
2021/06/07 01:43:28;;;;;;;2.50;2.10;;;17.80;75.80;;;;;;5066597;28;20138;-71
2021/06/07 01:45:53;;;;;;;2.65;1.75;;;17.80;76.00;;;;;;5084360;28;20032;-71
2021/06/07 01:48:19;;;;;;;3.35;1.98;;;17.80;75.90;;;;;;5066587;28;20091;-71
2021/06/07 01:50:45;;;;;;;2.55;1.98;;;17.80;75.90;;;;;;5068004;28;20025;-71
2021/06/07 01:53:11;;;;;;;2.70;1.95;;;17.80;76.00;;;;;;5066532;28;20331;-71
2021/06/07 01:55:42;;;;;;;4.82;1.95;;;17.80;76.10;;;;;;5084055;28;20044;-71
2021/06/07 01:58:08;;;;;;;2.65;2.10;;;17.80;76.10;;;;;;5083948;28;20056;-71
2021/06/07 02:00:46;;;;;;;3.95;1.90;;;17.80;76.10;;;;;;5083769;28;20051;-70
2021/06/07 02:03:13;;;;;;;2.13;1.80;;;17.80;76.20;;;;;;5086042;28;20139;-71
2021/06/07 02:05:40;;;;;;;2.70;1.90;;;17.80;76.10;;;;;;5084384;28;20031;-71
2021/06/07 02:08:08;;;;;;;2.60;1.48;;;17.80;76.20;;;;;;5084144;28;20347;-71
2021/06/07 02:10:42;;;;;;;2.80;1.73;;;17.80;76.10;;;;;;5083697;28;20135;-71
2021/06/07 02:13:08;;;;;;;4.70;1.80;;;17.80;76.10;;;;;;5065915;28;20035;-71
2021/06/07 02:15:33;;;;;;;5.35;1.90;;;17.80;76.20;;;;;;5065778;28;20045;-71
2021/06/07 02:18:09;;;;;;;3.05;1.77;;;17.80;76.20;;;;;;5084972;28;20073;-71
2021/06/07 02:20:35;;;;;;;2.38;1.80;;;17.80;76.10;;;;;;5066470;28;20069;-71
2021/06/07 02:23:00;;;;;;;2.25;1.88;;;17.80;76.10;;;;;;5065661;28;20320;-71
2021/06/07 02:25:26;;;;;;;3.05;1.50;;;17.80;76.00;;;;;;5083267;28;20028;-71
2021/06/07 02:27:51;;;;;;;3.88;1.90;;;17.80;76.10;;;;;;5083544;28;20339;-71
2021/06/07 02:30:22;;;;;;;3.65;1.88;;;17.80;76.10;;;;;;5083197;28;20044;-71
2021/06/07 02:32:48;;;;;;;5.47;1.88;;;17.70;76.20;;;;;;5067416;28;20039;-71
2021/06/07 02:35:15;;;;;;;3.55;1.60;;;17.80;76.00;;;;;;5083544;28;20267;-72
2021/06/07 02:37:41;;;;;;;3.33;1.63;;;17.70;76.10;;;;;;5083192;28;20231;-71
2021/06/07 02:40:07;;;;;;;2.13;1.70;;;17.70;76.10;;;;;;5083337;28;20052;-71
2021/06/07 02:42:34;;;;;;;2.15;1.65;;;17.70;76.10;;;;;;5083287;28;20244;-71
2021/06/07 02:44:59;;;;;;;3.38;2.03;;;17.80;76.00;;;;;;5084944;28;20028;-71
2021/06/07 02:47:25;;;;;;;2.25;1.65;;;17.80;76.00;;;;;;5083408;28;20024;-71
2021/06/07 02:49:50;;;;;;;2.33;1.85;;;17.70;75.90;;;;;;5083166;28;20032;-71
2021/06/07 02:52:16;;;;;;;4.22;3.17;;;17.70;75.90;;;;;;5082989;28;20036;-70
2021/06/07 02:54:41;;;;;;;3.70;2.60;;;17.80;75.90;;;;;;5064934;28;20095;-72
2021/06/07 02:57:07;;;;;;;4.13;2.35;;;17.70;75.80;;;;;;5084676;28;20021;-70
2021/06/07 02:59:32;;;;;;;2.47;2.05;;;17.70;75.80;;;;;;5082764;28;20033;-70
2021/06/07 03:01:58;;;;;;;3.13;1.90;;;17.70;75.80;;;;;;5082782;28;20036;-72
2021/06/07 03:04:23;;;;;;;2.85;1.90;;;17.60;75.80;;;;;;5082776;28;20208;-72
2021/06/07 03:06:49;;;;;;;5.65;1.88;;;17.60;75.80;;;;;;5064987;28;20092;-72
2021/06/07 03:09:14;;;;;;;3.10;1.80;;;17.60;75.90;;;;;;5064852;28;20246;-72
2021/06/07 03:11:40;;;;;;;3.78;1.95;;;17.60;75.80;;;;;;5084498;28;20028;-72
2021/06/07 03:14:05;;;;;;;4.72;2.15;;;17.60;75.90;;;;;;5082521;28;20036;-72
2021/06/07 03:16:31;;;;;;;3.17;2.33;;;17.60;75.90;;;;;;5064536;28;20041;-72
2021/06/07 03:18:56;;;;;;;4.40;1.98;;;17.60;76.00;;;;;;5082391;28;20104;-72
2021/06/07 03:21:22;;;;;;;3.83;2.35;;;17.60;76.00;;;;;;5081977;28;20323;-71
2021/06/07 03:23:48;;;;;;;2.05;1.85;;;17.60;76.00;;;;;;5084124;28;20032;-72
2021/06/07 03:26:13;;;;;;;2.60;2.10;;;17.50;76.10;;;;;;5048207;28;20040;-72
2021/06/07 03:28:39;;;;;;;3.33;1.98;;;17.60;76.20;;;;;;5082275;28;20056;-71
2021/06/07 03:31:05;;;;;;;4.32;2.20;;;17.60;76.30;;;;;;5082308;28;20258;-72
2021/06/07 03:33:31;;;;;;;3.42;2.40;;;17.60;76.20;;;;;;5048586;28;20308;-71
2021/06/07 03:35:56;;;;;;;3.20;1.90;;;17.60;76.20;;;;;;5084286;28;20035;-72
2021/06/07 03:38:26;;;;;;;2.25;1.90;;;17.70;76.20;;;;;;5064807;28;20046;-72
2021/06/07 03:40:52;;;;;;;7.82;1.90;;;17.70;76.30;;;;;;5064368;28;20323;-72
2021/06/07 03:43:19;;;;;;;2.47;1.90;;;17.70;76.40;;;;;;5064504;28;20036;-72
2021/06/07 03:45:44;;;;;;;3.67;1.90;;;17.80;76.30;;;;;;5082122;28;20033;-71
2021/06/07 03:48:10;;;;;;;4.18;1.75;;;17.70;76.20;;;;;;5084420;28;20040;-72
2021/06/07 03:50:36;;;;;;;3.10;1.65;;;17.70;76.30;;;;;;5082472;28;20219;-72
2021/06/07 03:53:02;;;;;;;3.47;1.60;;;17.80;76.20;;;;;;5064539;28;20037;-72
2021/06/07 03:55:27;;;;;;;3.25;1.70;;;17.70;76.30;;;;;;5064271;28;20037;-72
2021/06/07 03:57:53;;;;;;;2.65;1.80;;;17.80;75.90;;;;;;5064034;28;20032;-72
2021/06/07 04:00:22;;;;;;;3.53;1.85;;;17.80;76.20;;;;;;5064518;28;20328;-71
2021/06/07 04:02:48;;;;;;;3.88;1.90;;;17.80;76.40;;;;;;5065845;28;20029;-72
2021/06/07 04:05:14;;;;;;;2.65;1.88;;;17.80;76.40;;;;;;5064451;28;20124;-72
2021/06/07 04:07:39;;;;;;;9.27;1.90;;;17.80;76.40;;;;;;5081915;28;20045;-72
2021/06/07 04:10:07;;;;;;;3.15;1.67;;;17.80;76.30;;;;;;5064101;28;20044;-71
2021/06/07 04:12:33;;;;;;;3.17;2.33;;;17.90;76.10;;;;;;5064181;28;20048;-72
2021/06/07 04:14:58;;;;;;;3.70;2.03;;;17.90;76.20;;;;;;5065746;28;20051;-72
2021/06/07 04:17:24;;;;;;;3.50;2.15;;;17.90;76.20;;;;;;5081755;28;20036;-72
2021/06/07 04:19:49;;;;;;;3.53;1.60;;;17.90;76.40;;;;;;5064037;28;20116;-72
2021/06/07 04:22:15;;;;;;;4.15;2.17;;;17.90;76.40;;;;;;5082146;28;20041;-72
2021/06/07 04:24:42;;;;;;;2.30;1.90;;;17.90;76.40;;;;;;5081725;28;20028;-72
2021/06/07 04:27:09;;;;;;;2.92;1.70;;;17.90;76.40;;;;;;5083609;28;20086;-72
2021/06/07 04:29:35;;;;;;;3.22;1.50;;;18.00;76.30;;;;;;5064246;28;20197;-72
2021/06/07 04:32:01;;;;;;;2.55;2.00;;;18.00;76.10;;;;;;5082314;28;20040;-72
2021/06/07 04:34:26;;;;;;;5.47;1.80;;;17.90;76.20;;;;;;5051059;28;20033;-72
2021/06/07 04:36:52;;;;;;;1.83;1.65;;;18.00;76.00;;;;;;5084366;28;20060;-72
2021/06/07 04:39:17;;;;;;;3.97;1.80;;;18.00;75.80;;;;;;5085864;28;20040;-71
2021/06/07 04:41:43;;;;;;;2.45;1.88;;;18.00;75.80;;;;;;5087312;28;20060;-71
2021/06/07 04:44:08;;;;;;;3.08;1.70;;;18.00;75.80;;;;;;5085745;28;20032;-71
2021/06/07 04:46:34;;;;;;;2.25;1.83;;;18.10;75.60;;;;;;5085079;28;20255;-71
2021/06/07 04:49:00;;;;;;;5.75;2.05;;;18.10;75.50;;;;;;5085329;28;20035;-71
2021/06/07 04:51:25;;;;;;;4.10;1.67;;;18.10;75.40;;;;;;5064788;28;20052;-70
2021/06/07 04:53:51;;;;;;;3.50;1.77;;;18.10;75.40;;;;;;5087282;28;20029;-71
2021/06/07 04:56:17;;;;;;;3.05;1.80;;;18.20;75.30;;;;;;5067664;28;20332;-72
2021/06/07 04:58:42;;;;;;;3.25;1.95;;;18.10;75.50;;;;;;5067377;28;20255;-71
2021/06/07 05:01:09;;;;;;;2.88;2.05;;;18.10;75.40;;;;;;5085088;28;20055;-70
2021/06/07 05:03:35;;;;;;;2.78;2.00;;;18.10;75.40;;;;;;5067159;28;20096;-70
2021/06/07 05:06:01;;;;;;;5.15;2.00;;;18.20;75.20;;;;;;5068979;28;20037;-71
2021/06/07 05:08:27;;;;;;;4.55;1.80;;;18.30;75.70;;;;;;5085207;28;20223;-71
2021/06/07 05:10:53;;;;;;;2.60;1.55;;;18.30;76.10;;;;;;5067017;28;20040;-71
2021/06/07 05:13:19;;;;;;;3.33;1.90;;;18.30;75.70;;;;;;5066870;28;20212;-71
2021/06/07 05:15:44;;;;;;;1.95;1.60;;;18.30;75.80;;;;;;5050489;28;20081;-70
2021/06/07 05:18:10;;;;;;;2.53;1.65;;;18.30;75.50;;;;;;5086033;28;20410;-70
2021/06/07 05:20:36;;;;;;;3.05;1.90;;;18.30;75.30;;;;;;5066554;28;20067;-71
2021/06/07 05:23:01;;;;;;;3.00;1.75;;;18.30;74.90;;;;;;5066643;28;20040;-71
2021/06/07 05:25:28;;;;;;;4.30;1.65;;;18.40;75.10;;;;;;5084544;28;20035;-70
2021/06/07 05:27:54;;;;;;;2.33;1.80;;;18.40;75.00;;;;;;5066622;28;20033;-71
2021/06/07 05:30:21;;;;;;;2.33;1.27;;;18.30;75.50;;;;;;5066510;28;20060;-70
2021/06/07 05:32:46;;;;;;;10.10;1.50;;;18.40;75.00;;;;;;5086345;28;20091;-71
2021/06/07 05:35:13;;;;;;;4.65;1.50;;;18.40;75.20;;;;;;5066719;28;20208;-71
2021/06/07 05:37:39;;;;;;;1.70;1.38;;;18.40;75.40;;;;;;5084300;28;20051;-71
2021/06/07 05:40:05;;;;;;;2.88;1.10;;;18.50;74.70;;;;;;5066474;28;20040;-70
2021/06/07 05:42:31;;;;;;;3.20;1.20;;;18.50;74.90;;;;;;5066345;28;20362;-70
2021/06/07 05:44:56;;;;;;;3.03;1.33;;;18.50;75.20;;;;;;5085579;28;20032;-71
2021/06/07 05:47:22;;;;;;;3.00;1.30;;;18.40;75.30;;;;;;5084227;28;20212;-71
2021/06/07 05:49:47;;;;;;;2.03;1.00;;;18.50;75.30;;;;;;5066314;28;20032;-71
2021/06/07 05:52:13;;;;;;;2.20;1.50;;;18.60;75.30;;;;;;5083857;28;20039;-71
2021/06/07 05:54:39;;;;;;;1.90;1.10;;;18.60;75.10;;;;;;5066376;28;20332;-71
2021/06/07 05:57:05;;;;;;;2.67;1.20;;;18.70;75.00;;;;;;5067907;28;20028;-71
2021/06/07 05:59:30;;;;;;;2.40;1.33;;;18.70;74.90;;;;;;5066409;28;20040;-71
2021/06/07 06:01:56;;;;;;;1.90;1.38;;;18.70;74.70;;;;;;5083885;28;20039;-71
2021/06/07 06:04:23;;;;;;;2.83;1.50;;;18.80;74.60;;;;;;5083815;28;20037;-71
2021/06/07 06:06:49;;;;;;;4.45;1.75;;;18.80;74.20;;;;;;5065886;28;20051;-71
2021/06/07 06:09:14;;;;;;;3.67;1.52;;;18.80;74.40;;;;;;5065944;28;20040;-70
2021/06/07 06:11:41;;;;;;;1.90;1.67;;;18.80;74.30;;;;;;5085107;28;20024;-72
2021/06/07 06:14:07;;;;;;;6.03;1.30;;;18.80;73.60;;;;;;5083864;28;20039;-71
2021/06/07 06:16:32;;;;;;;2.78;1.48;;;18.80;73.50;;;;;;5083345;28;20296;-70
2021/06/07 06:18:58;;;;;;;2.33;1.30;;;18.80;72.90;;;;;;5065543;28;20044;-71
2021/06/07 06:21:26;;;;;;;1.98;1.40;;;18.90;72.80;;;;;;5083342;28;20074;-70
2021/06/07 06:23:53;;;;;;;1.77;1.23;;;19.00;72.90;;;;;;5084918;28;20044;-70
2021/06/07 06:26:19;;;;;;;3.55;1.60;;;18.90;72.80;;;;;;5065748;28;20052;-70
2021/06/07 06:28:44;;;;;;;1.35;0.98;;;19.00;72.80;;;;;;5065518;28;20036;-71
2021/06/07 06:31:10;;;;;;;1.83;1.20;;;19.00;72.30;;;;;;5083128;28;20043;-71
2021/06/07 06:33:35;;;;;;;1.45;1.10;;;19.00;73.10;;;;;;5083064;28;20032;-71
2021/06/07 06:36:01;;;;;;;3.90;1.15;;;19.00;72.50;;;;;;5085074;28;20032;-72
2021/06/07 06:38:26;;;;;;;1.52;1.20;;;19.10;72.70;;;;;;5083293;28;20052;-72
2021/06/07 06:40:54;;;;;;;2.22;1.30;;;19.10;72.40;;;;;;5048837;28;20032;-72
2021/06/07 06:43:21;;;;;;;3.25;1.10;;;19.10;71.90;;;;;;5083092;28;20036;-72
2021/06/07 06:45:46;;;;;;;1.58;1.20;;;19.10;72.00;;;;;;5065656;28;20254;-72
2021/06/07 06:48:12;;;;;;;3.95;1.00;;;19.20;72.00;;;;;;5066840;28;20091;-72
2021/06/07 06:50:39;;;;;;;2.25;1.20;;;19.20;72.20;;;;;;5082742;28;20037;-72
2021/06/07 06:53:06;;;;;;;1.55;1.20;;;19.30;72.30;;;;;;5065148;28;20048;-72
2021/06/07 06:55:32;;;;;;;2.72;1.40;;;19.30;72.60;;;;;;5064454;28;20099;-72
2021/06/07 06:57:57;;;;;;;3.33;1.50;;;19.20;73.20;;;;;;5065085;28;20052;-72
2021/06/07 07:00:23;;;;;;;1.70;1.30;;;19.30;73.90;;;;;;5082722;28;20032;-71
2021/06/07 07:02:49;;;;;;;2.85;1.80;;;19.30;73.40;;;;;;5066600;28;20095;-71
2021/06/07 07:05:14;;;;;;;3.63;1.98;;;19.30;73.40;;;;;;5064902;28;20033;-71
2021/06/07 07:07:40;;;;;;;5.20;1.83;;;19.40;72.90;;;;;;5082844;28;20291;-72
2021/06/07 07:10:06;;;;;;;5.70;2.00;;;19.30;72.10;;;;;;5082955;28;20032;-72
2021/06/07 07:12:32;;;;;;;2.28;1.70;;;19.40;72.70;;;;;;5082609;28;20032;-70
2021/06/07 07:14:57;;;;;;;3.40;1.80;;;19.50;72.70;;;;;;5084244;28;20066;-70
2021/06/07 07:17:23;;;;;;;2.95;1.60;;;19.50;72.40;;;;;;5082309;28;20395;-70
2021/06/07 07:19:49;;;;;;;3.45;1.67;;;19.50;72.50;;;;;;5082686;28;20046;-70
2021/06/07 07:22:15;;;;;;;2.53;2.10;;;19.60;72.50;;;;;;5082573;28;20040;-71
2021/06/07 07:24:44;;;;;;;3.85;1.58;;;19.60;72.30;;;;;;5048025;28;20104;-68
2021/06/07 07:27:14;;;;;;;3.97;2.00;;;19.70;71.70;;;;;;5066653;28;20207;-68
2021/06/07 07:29:39;;;;;;;3.92;2.00;;;19.80;71.80;;;;;;5083550;28;20028;-68
2021/06/07 07:32:06;;;;;;;2.72;1.75;;;19.80;71.80;;;;;;5082825;28;20035;-69
2021/06/07 07:34:32;;;;;;;6.30;1.70;;;19.80;71.90;;;;;;5082505;28;20036;-68
2021/06/07 07:36:58;;;;;;;7.97;2.10;;;19.90;72.00;;;;;;5082362;28;20346;-68
2021/06/07 07:39:23;;;;;;;3.83;1.60;;;19.90;72.60;;;;;;5082064;28;20078;-68
2021/06/07 07:41:49;;;;;;;2.10;1.50;;;20.00;72.60;;;;;;5083853;28;20100;-68
2021/06/07 07:44:14;;;;;;;2.30;1.67;;;20.00;71.60;;;;;;5082132;28;20029;-68
2021/06/07 07:46:40;;;;;;;2.67;1.70;;;20.10;70.50;;;;;;5064501;28;20255;-68
2021/06/07 07:49:06;;;;;;;1.88;1.30;;;20.20;70.50;;;;;;5082211;28;20334;-68
2021/06/07 07:51:31;;;;;;;2.20;1.42;;;20.20;69.60;;;;;;5082050;28;20036;-68
2021/06/07 07:53:57;;;;;;;3.38;1.70;;;20.40;69.80;;;;;;5083741;28;20036;-68
2021/06/07 07:56:22;;;;;;;1.83;1.20;;;20.50;69.70;;;;;;5082148;28;20029;-68
2021/06/07 07:58:48;;;;;;;1.52;1.20;;;20.70;69.80;;;;;;5081876;28;20036;-68
2021/06/07 08:01:13;;;;;;;1.73;1.10;;;20.80;68.20;;;;;;5082275;28;20096;-68
2021/06/07 08:03:39;;;;;;;1.70;1.30;;;21.00;67.90;;;;;;5081952;28;20274;-69
2021/06/07 08:06:04;;;;;;;2.05;1.00;;;21.10;67.60;;;;;;5083578;28;20319;-68
2021/06/07 08:08:30;;;;;;;2.40;1.27;;;21.20;67.40;;;;;;5085329;28;20055;-68
2021/06/07 08:10:58;;;;;;;2.58;1.40;;;21.40;67.60;;;;;;5086101;28;20339;-68
2021/06/07 08:13:24;;;;;;;7.00;1.13;;;21.50;66.50;;;;;;5085825;28;20043;-68
2021/06/07 08:15:49;;;;;;;1.90;1.02;;;21.70;66.90;;;;;;5067861;28;20326;-68
2021/06/07 08:18:15;;;;;;;3.10;1.15;;;21.80;66.00;;;;;;5085443;28;20053;-68
2021/06/07 08:20:41;;;;;;;1.70;1.05;;;21.80;65.20;;;;;;5087404;28;20021;-68
2021/06/07 08:23:06;;;;;;;1.58;1.13;;;22.00;65.50;;;;;;5085616;28;20024;-68
2021/06/07 08:25:32;;;;;;;1.70;1.10;;;22.00;64.50;;;;;;5085734;28;20095;-68
2021/06/07 08:27:57;;;;;;;2.50;1.20;;;22.00;64.30;;;;;;5085524;28;20048;-68
2021/06/07 08:30:23;;;;;;;2.28;1.00;;;22.10;64.50;;;;;;5085885;28;20032;-68
2021/06/07 08:32:49;;;;;;;2.40;1.00;;;22.10;64.70;;;;;;5087297;28;20028;-68
2021/06/07 08:35:14;;;;;;;1.70;0.75;;;22.10;63.80;;;;;;5085905;28;20036;-68
2021/06/07 08:37:40;;;;;;;3.72;0.80;;;22.00;64.70;;;;;;5085221;28;20037;-68
2021/06/07 08:40:07;;;;;;;1.98;0.90;;;22.00;65.30;;;;;;5085571;28;20193;-68
2021/06/07 08:42:38;;;;;;;1.60;0.70;;;21.80;65.40;;;;;;5085357;28;20044;-69
2021/06/07 08:45:06;;;;;;;3.28;1.00;;;21.60;64.70;;;;;;5087087;28;20032;-68
2021/06/07 08:47:32;;;;;;;1.33;0.82;;;21.30;64.60;;;;;;5085184;28;20032;-68
2021/06/07 08:49:58;;;;;;;1.75;1.10;;;21.30;64.30;;;;;;5085620;28;20028;-68
2021/06/07 08:52:24;;;;;;;2.92;0.93;;;21.30;64.50;;;;;;5067363;28;20048;-68
2021/06/07 08:54:49;;;;;;;1.73;0.90;;;21.30;65.30;;;;;;5067047;28;20037;-68
2021/06/07 08:57:15;;;;;;;3.20;0.82;;;21.30;65.70;;;;;;5067158;28;20025;-67
2021/06/07 08:59:40;;;;;;;1.23;0.93;;;21.20;65.70;;;;;;5086512;28;20070;-68
2021/06/07 09:02:06;;;;;;;1.50;1.00;;;21.20;65.20;;;;;;5084801;28;20099;-69
2021/06/07 09:04:45;;;;;;;4.78;1.10;;;21.10;65.10;;;;;;5084865;28;20071;-67
2021/06/07 09:07:10;;;;;;;1.55;0.95;;;21.20;65.10;;;;;;5068665;28;20036;-67
2021/06/07 09:09:36;;;;;;;3.22;0.80;;;21.30;65.00;;;;;;5084641;28;20031;-68
2021/06/07 09:12:03;;;;;;;3.70;1.10;;;21.30;65.50;;;;;;5068783;28;20126;-67
2021/06/07 09:14:34;;;;;;;2.22;0.90;;;21.30;66.00;;;;;;5085103;28;20056;-67
2021/06/07 09:17:00;;;;;;;2.90;1.00;;;21.30;66.10;;;;;;5066826;28;20213;-71
2021/06/07 09:19:29;;;;;;;3.22;1.00;;;21.30;65.00;;;;;;5065824;28;20050;-68
2021/06/07 09:22:17;;;;;;;2.80;1.23;;;21.30;64.60;;;;;;5050089;28;20036;-68
2021/06/07 09:25:09;;;;;;;3.63;1.00;;;21.20;65.20;;;;;;5073788;28;20035;-67
2021/06/07 09:27:34;;;;;;;1.35;0.90;;;21.30;64.50;;;;;;5084476;28;20228;-68
2021/06/07 09:30:00;;;;;;;2.00;0.93;;;21.30;64.50;;;;;;5086026;28;20032;-67
2021/06/07 09:32:26;;;;;;;2.58;1.20;;;21.30;65.20;;;;;;5066678;28;20032;-68
2021/06/07 09:35:08;;;;;;;4.35;1.15;;;21.30;65.20;;;;;;5084546;28;20028;-68
2021/06/07 09:37:34;;;;;;;3.35;0.90;;;21.30;65.50;;;;;;5066720;28;20037;-68
2021/06/07 09:40:19;;;;;;;3.50;1.10;;;21.30;65.70;;;;;;5066381;28;20101;-67
2021/06/07 09:42:58;;;;;;;1.60;1.08;;;21.40;66.50;;;;;;5066352;28;20032;-67
2021/06/07 09:45:44;;;;;;;1.10;0.93;;;21.30;66.10;;;;;;5066762;28;20334;-68
2021/06/07 09:48:14;;;;;;;2.92;1.00;;;21.40;65.70;;;;;;5085690;28;20078;-68
2021/06/07 09:50:59;;;;;;;3.33;1.40;;;21.40;65.50;;;;;;5067068;28;20111;-68
2021/06/07 09:53:46;;;;;;;1.92;1.50;;;21.40;64.70;;;;;;5084035;28;20041;-68
2021/06/07 09:56:12;;;;;;;7.47;1.40;;;21.40;65.00;;;;;;5084202;28;20212;-68
2021/06/07 09:58:39;;;;;;;1.88;1.45;;;21.30;64.40;;;;;;5083755;28;20033;-68
2021/06/07 10:01:09;;;;;;;1.77;1.58;;;21.30;63.80;;;;;;5083358;28;20048;-68
2021/06/07 10:03:41;;;;;;;2.95;1.80;;;21.40;63.60;;;;;;5066284;28;20028;-69
2021/06/07 10:06:26;;;;;;;2.00;1.60;;;21.40;63.70;;;;;;5085520;28;20216;-69
2021/06/07 10:08:59;;;;;;;2.85;1.67;;;21.50;64.40;;;;;;5084027;28;20103;-68
2021/06/07 10:11:33;;;;;;;3.35;1.88;;;21.60;64.50;;;;;;5083775;28;20036;-69
2021/06/07 10:14:15;;;;;;;9.18;2.08;;;21.50;64.40;;;;;;5083933;28;20041;-68
2021/06/07 10:17:01;;;;;;;2.00;1.80;;;21.60;63.10;;;;;;5083272;28;20056;-69
2021/06/07 10:22:12;;;;;;;3.47;2.25;;;21.60;62.60;;;;;;5083759;28;20036;-69
2021/06/07 10:24:37;;;;;;;3.03;2.10;;;21.60;62.90;;;;;;5083359;28;20260;-67
2021/06/07 10:27:03;;;;;;;3.05;2.00;;;21.60;63.20;;;;;;5085178;28;20032;-68
2021/06/07 10:29:33;;;;;;;3.22;2.08;;;21.60;63.70;;;;;;5083238;28;20032;-68
2021/06/07 10:32:11;;;;;;;4.70;1.85;;;21.60;64.40;;;;;;5083315;28;20032;-69
2021/06/07 10:34:54;;;;;;;5.82;2.33;;;21.60;64.70;;;;;;5083101;28;20043;-70
2021/06/07 10:37:20;;;;;;;9.18;3.00;;;21.60;64.00;;;;;;5083251;28;20037;-69
2021/06/07 10:39:46;;;;;;;4.68;2.75;;;21.60;64.50;;;;;;5065194;28;20047;-68
2021/06/07 10:42:19;;;;;;;3.83;2.30;;;21.70;64.00;;;;;;5084927;28;20314;-69
2021/06/07 10:44:50;;;;;;;3.35;2.05;;;21.80;64.30;;;;;;5083887;28;20090;-69
2021/06/07 10:47:21;;;;;;;3.22;1.90;;;21.80;64.80;;;;;;5083222;28;20297;-68
2021/06/07 10:49:56;;;;;;;2.78;2.30;;;21.80;63.80;;;;;;5082862;28;20331;-69
2021/06/07 10:52:26;;;;;;;3.95;2.80;;;21.60;63.40;;;;;;5083131;28;20106;-68
2021/06/07 10:54:57;;;;;;;4.72;2.53;;;21.50;62.80;;;;;;5082877;28;20159;-68
2021/06/07 10:57:25;;;;;;;3.67;2.80;;;21.50;62.70;;;;;;5082683;28;20037;-68
2021/06/07 10:59:59;;;;;;;2.47;2.25;;;21.60;62.80;;;;;;5084270;28;20032;-68
2021/06/07 11:02:25;;;;;;;6.60;3.65;;;21.60;63.20;;;;;;5082953;28;20043;-68
2021/06/07 11:05:14;;;;;;;4.10;2.95;;;21.80;63.70;;;;;;5083046;28;20036;-68
2021/06/07 11:07:59;;;;;;;4.65;2.67;;;21.80;63.90;;;;;;5082435;28;20327;-69
2021/06/07 11:10:27;;;;;;;4.75;2.90;;;21.80;63.90;;;;;;5057347;28;20037;-68
2021/06/07 11:12:57;;;;;;;3.30;2.85;;;21.90;63.50;;;;;;5082841;28;20082;-68
2021/06/07 11:15:33;;;;;;;4.03;3.05;;;22.10;63.10;;;;;;5082290;28;20154;-68
2021/06/07 11:18:17;;;;;;;5.93;2.78;;;22.20;62.70;;;;;;5082054;28;20116;-68
2021/06/07 11:20:43;;;;;;;6.05;2.63;;;22.20;62.30;;;;;;5082397;28;20028;-68
2021/06/07 11:23:10;;;;;;;6.00;3.03;;;22.30;63.40;;;;;;5082291;28;20118;-67
2021/06/07 11:25:44;;;;;;;4.95;2.92;;;22.30;62.00;;;;;;5084387;28;20074;-68
2021/06/07 11:28:29;;;;;;;5.43;2.72;;;22.30;61.80;;;;;;5082615;28;20354;-68
2021/06/07 11:30:55;;;;;;;2.80;2.50;;;22.40;61.80;;;;;;5064452;28;20400;-68
2021/06/07 11:33:21;;;;;;;3.25;2.53;;;22.50;62.20;;;;;;5082133;28;20078;-68
2021/06/07 11:35:46;;;;;;;5.82;3.63;;;22.50;62.40;;;;;;5064636;28;20324;-68
2021/06/07 11:38:44;;;;;;;5.50;3.00;;;22.50;61.70;;;;;;5082083;28;20224;-69
2021/06/07 11:41:49;;;;;;;4.03;3.00;;;22.60;61.10;;;;;;5081902;28;20035;-69
2021/06/07 11:44:16;;;;;;;3.50;2.90;;;22.80;61.10;;;;;;5081966;28;20024;-68
2021/06/07 11:46:41;;;;;;;7.57;2.90;;;22.80;61.10;;;;;;5083767;28;20032;-69
2021/06/07 11:49:14;;;;;;;7.43;3.67;;;22.90;61.50;;;;;;5082236;28;20286;-68
2021/06/07 11:51:41;;;;;;;4.97;3.60;;;23.00;61.80;;;;;;5082030;28;20351;-68
2021/06/07 11:54:25;;;;;;;4.10;3.00;;;23.10;60.90;;;;;;5082095;28;20051;-68
2021/06/07 11:56:52;;;;;;;4.22;3.05;;;23.20;60.20;;;;;;5082237;28;20046;-68
2021/06/07 11:59:44;;;;;;;4.90;3.03;;;23.30;58.70;;;;;;5082227;28;20032;-68
2021/06/07 12:02:14;;;;;;;4.55;2.90;;;23.40;58.80;;;;;;5061295;28;20088;-68
2021/06/07 12:04:40;;;;;;;3.88;2.90;;;23.30;59.20;;;;;;5083957;28;20028;-68
2021/06/07 12:07:10;;;;;;;4.55;3.10;;;23.30;58.70;;;;;;5082151;28;20039;-68
2021/06/07 12:09:37;;;;;;;5.57;3.83;;;23.40;59.60;;;;;;5081963;28;20037;-70
2021/06/07 12:12:04;;;;;;;4.85;3.60;;;23.20;58.40;;;;;;5082039;28;20037;-68
2021/06/07 12:14:34;;;;;;;5.72;3.25;;;23.20;57.40;;;;;;5082167;28;20058;-68
2021/06/07 12:17:17;;;;;;;5.47;3.10;;;23.20;58.00;;;;;;5083347;28;20155;-69
2021/06/07 12:19:56;;;;;;;4.22;3.70;;;23.20;58.00;;;;;;5082686;28;20354;-68
2021/06/07 12:22:34;;;;;;;3.95;3.50;;;23.30;58.60;;;;;;5082071;28;20037;-68
2021/06/07 12:25:27;;;;;;;3.90;3.10;;;23.40;57.30;;;;;;5081949;28;20312;-69
2021/06/07 12:28:23;;;;;;;6.50;3.08;;;23.50;57.80;;;;;;5081793;28;20264;-68
2021/06/07 12:30:53;;;;;;;5.10;3.53;;;23.80;60.10;;;;;;5067772;28;20029;-68
2021/06/07 12:33:26;;;;;;;3.53;3.00;;;23.80;59.20;;;;;;5081694;28;20101;-69
2021/06/07 12:35:53;;;;;;;6.57;3.22;;;24.00;60.00;;;;;;5063804;28;20035;-69
2021/06/07 12:38:19;;;;;;;3.70;3.20;;;24.10;59.70;;;;;;5081435;28;20052;-69
2021/06/07 12:40:45;;;;;;;4.15;2.92;;;24.20;59.70;;;;;;5083353;28;20204;-69
2021/06/07 12:43:19;;;;;;;4.03;2.90;;;24.20;56.20;;;;;;5063862;28;20036;-69
2021/06/07 12:46:00;;;;;;;2.78;2.58;;;24.30;56.20;;;;;;5081277;28;20096;-69
2021/06/07 12:48:32;;;;;;;;;;;24.20;54.60;;;;;;5065263;28;20040;-69
2021/06/07 12:51:01;;;;;;;3.53;2.75;;;24.20;54.70;;;;;;5081245;28;19904;-69
2021/06/07 12:53:28;;;;;;;3.33;2.90;;;24.30;55.70;;;;;;5063541;28;20103;-69
2021/06/07 12:55:55;;;;;;;4.75;3.00;;;24.40;54.40;;;;;;5068840;28;20028;-69